• Join FlightAware (Why Join?)
  • Login
  • US Flag 
09:55PM EDT


 

Airport Tracker/Info


-or-


 

Live Flight TrackerFlight Track Log ✈ TSU191 ✈ 28-Jun-2013 ✈ KTUP - KPTK

Flight Track Log - Related Links

Times and Time Zones

All times are in EDT time to prevent confusion due to time zone crossing. See the TSU191 flight status page for this flight to view local times or setup timezone preferences in your user account.

Time Position Orientation Groundspeed Altitude Reporting Facility
EDT Latitude Longitude Course Direction KTS MPH feet Rate Location/Type
07:09PM 34.2447 -88.6811 14° North 175 201 21,000  Level Memphis Center
07:10PM 34.2406 -88.6739 125° Southeast 28 32 21,000  Level Memphis Center
07:11PM 34.2361 -88.6639 118° Southeast 23 26 21,000  Level Memphis Center
07:12PM 34.2297 -88.6539 128° Southeast 28 32 21,000 -8,820 Level Memphis Center
07:13PM 34.3564 -88.7494 328° Northwest 274 315 3,400 -8,040 Descending Memphis Center
07:14PM 34.6570 -88.6312 14° North  Level FlightAware Approximate
07:14PM 34.4061 -88.7308 17° North 196 226 5,000  Level Memphis Center
07:15PM 34.4539 -88.7122 18° North 190 219 6,300 1,200 Climbing Memphis Center
07:16PM 34.5078 -88.6936 16° North 190 219 7,500 1,200 Climbing Memphis Center
07:17PM 34.5619 -88.6750 16° North 195 224 8,700 1,320 Climbing Memphis Center
07:18PM 34.6264 -88.6536 15° North 206 237 10,200 1,320 Climbing Memphis Center
07:19PM 34.6825 -88.6347 15° North 211 243 11,400 1,080 Climbing Memphis Center
07:20PM 34.7406 -88.6183 13° North 211 243 12,400 1,080 Climbing Memphis Center
07:21PM 34.7967 -88.6019 13° North 217 250 13,600 1,020 Climbing Memphis Center
07:22PM 34.8589 -88.5831 14° North 217 250 14,500 960 Climbing Memphis Center
07:23PM 34.9150 -88.5667 13° North 211 243 15,600 1,020 Climbing Memphis Center
07:24PM 34.9733 -88.5475 15° North 205 236 16,600 900 Climbing Memphis Center
07:25PM 35.0292 -88.5286 15° North 199 229 17,500 900 Climbing Memphis Center
07:26PM 35.0875 -88.5122 13° North 207 238 18,400 840 Climbing Memphis Center
07:27PM 35.1436 -88.4931 16° North 207 238 19,200 720 Climbing Memphis Center
07:28PM 35.1933 -88.4794 13° North 207 238 19,900 660 Climbing Memphis Center
07:29PM 35.2514 -88.4603 15° North 207 238 20,600 600 Climbing Memphis Center
07:30PM 35.3117 -88.4486 North 207 238 21,100 240 Climbing Memphis Center
07:31PM 35.3781 -88.4267 15° North 220 253 21,100  Level Memphis Center
07:32PM 35.4467 -88.4022 16° North 236 272 21,200  Climbing Memphis Center
07:33PM 35.5172 -88.3828 13° North 255 293 21,100 -60 Descending Memphis Center
07:34PM 35.5878 -88.3581 16° North 260 299 21,100  Level Memphis Center
07:35PM 35.6558 -88.3206 24° Northeast 260 299 21,100  Level Memphis Center
07:36PM 35.7219 -88.2833 25° Northeast 265 305 21,200  Climbing Memphis Center
07:37PM 35.7903 -88.2483 23° Northeast 270 311 21,200  Level Memphis Center
07:38PM 35.8564 -88.2133 23° Northeast 270 311 21,200  Level Memphis Center
07:39PM 35.9225 -88.1781 23° Northeast 270 311 21,200 -60 Level Memphis Center
07:40PM 35.9928 -88.1431 22° Northeast 270 311 21,100  Descending Memphis Center
07:41PM 36.0653 -88.1078 21° North 260 299 21,200  Climbing Memphis Center
07:42PM 36.1311 -88.0697 25° Northeast 260 299 21,200  Level Memphis Center
07:43PM 36.1994 -88.0344 23° Northeast 260 299 21,200  Level Memphis Center
07:44PM 36.2656 -88.0017 22° Northeast 254 292 21,200  Level Memphis Center
07:45PM 36.3333 -87.9611 26° Northeast 254 292 21,200  Level Memphis Center
07:46PM 36.3975 -87.9283 22° Northeast 259 298 21,200 -60 Level Memphis Center
07:47PM 36.4633 -87.8903 25° Northeast 264 304 21,100 -60 Descending Memphis Center
07:48PM 36.5333 -87.8519 24° Northeast 264 304 21,100  Level Memphis Center
07:49PM 36.6014 -87.8136 24° Northeast 269 310 21,200  Climbing Memphis Center
07:50PM 36.6714 -87.7725 25° Northeast 269 310 21,200  Level Memphis Center
07:51PM 36.7394 -87.7342 24° Northeast 274 315 21,200 -60 Level Memphis Center
07:52PM 36.8156 -87.6903 25° Northeast 269 310 21,100 -60 Descending Memphis Center
07:53PM 36.8856 -87.6489 25° Northeast 269 310 21,100  Level Memphis Center
07:55PM 37.0425 -87.5539 26° Northeast 273 314 21,100  Level Indianapolis Center
07:56PM 37.1117 -87.5117 26° Northeast 274 315 21,100  Level Indianapolis Center
07:57PM 37.1797 -87.4644 29° Northeast 274 315 21,100  Level Indianapolis Center
07:58PM 37.2517 -87.4289 21° North 275 316 21,100  Level Indianapolis Center
07:59PM 37.3217 -87.3897 24° Northeast 272 313 21,100  Level Indianapolis Center
08:00PM 37.3931 -87.3525 22° Northeast 275 316 21,200  Climbing Indianapolis Center
08:01PM 37.4764 -87.3069 23° Northeast 277 319 21,100 -60 Descending Indianapolis Center
08:02PM 37.5469 -87.2606 28° Northeast 281 323 21,100  Level Indianapolis Center
08:03PM 37.6183 -87.2183 25° Northeast 281 323 21,100  Level Indianapolis Center
08:04PM 37.6906 -87.1736 26° Northeast 278 320 21,100  Level Indianapolis Center
08:05PM 37.7608 -87.1303 26° Northeast 280 322 21,100  Level Indianapolis Center
08:06PM 37.8317 -87.0889 25° Northeast 280 322 21,100  Level Indianapolis Center
08:07PM 37.9028 -87.0442 26° Northeast 283 326 21,100  Level Indianapolis Center
08:08PM 37.9744 -87.0014 25° Northeast 284 327 21,200  Climbing Indianapolis Center
08:09PM 38.0461 -86.9622 23° Northeast 282 325 21,100 -60 Descending Indianapolis Center
08:10PM 38.1172 -86.9239 23° Northeast 279 321 21,100  Level Indianapolis Center
08:11PM 38.2028 -86.8756 24° Northeast 281 323 21,100  Level Indianapolis Center
08:12PM 38.2722 -86.8308 27° Northeast 282 325 21,100  Level Indianapolis Center
08:13PM 38.3425 -86.7883 25° Northeast 281 323 21,100  Level Indianapolis Center
08:14PM 38.4119 -86.7478 25° Northeast 278 320 21,100  Level Indianapolis Center
08:15PM 38.4803 -86.7078 25° Northeast 273 314 21,200  Climbing Indianapolis Center
08:17PM 38.5494 -86.6719 22° Northeast 270 311 21,200  Level Indianapolis Center
08:18PM 38.6328 -86.6256 23° Northeast 270 311 21,200  Level Indianapolis Center
08:19PM 38.7017 -86.5839 25° Northeast 273 314 21,200  Level Indianapolis Center
08:20PM 38.7719 -86.5425 25° Northeast 277 319 21,200  Level Indianapolis Center
08:21PM 38.8431 -86.5044 23° Northeast 276 318 21,200  Level Indianapolis Center
08:22PM 38.9128 -86.4678 22° Northeast 276 318 21,200  Level Indianapolis Center
08:23PM 38.9814 -86.4239 26° Northeast 276 318 21,200  Level Indianapolis Center
08:24PM 39.0536 -86.3836 23° Northeast 281 323 21,200  Level Indianapolis Center
08:25PM 39.1436 -86.3656 North 273 314 21,200  Level Indianapolis Center
08:26PM 39.2158 -86.3294 21° North 279 321 21,200  Level Indianapolis Center
08:27PM 39.2872 -86.2872 25° Northeast 282 325 21,200  Level Indianapolis Center
08:28PM 39.3586 -86.2483 23° Northeast 280 322 21,200  Level Indianapolis Center
08:29PM 39.4292 -86.2039 26° Northeast 284 327 21,200 -60 Level Indianapolis Center
08:30PM 39.4919 -86.1372 39° Northeast 294 338 21,100 -60 Descending Indianapolis Center
08:31PM 39.5539 -86.0692 40° Northeast 295 339 21,100  Level Indianapolis Center
08:32PM 39.6303 -85.9925 38° Northeast 294 338 21,100  Level Indianapolis Center
08:33PM 39.6917 -85.9264 40° Northeast 291 335 21,200  Climbing Indianapolis Center
08:34PM 39.7544 -85.8606 39° Northeast 292 336 21,100 -60 Descending Indianapolis Center
08:35PM 39.8169 -85.7939 39° Northeast 292 336 21,100  Level Indianapolis Center
08:36PM 39.8808 -85.7306 37° Northeast 290 334 21,100  Level Indianapolis Center
08:37PM 39.9586 -85.6558 36° Northeast 290 334 21,100  Level Indianapolis Center
08:38PM 40.0211 -85.5892 39° Northeast 291 335 21,100  Level Indianapolis Center
08:39PM 40.0864 -85.5283 35° Northeast 290 334 21,100  Level Indianapolis Center
08:40PM 40.1489 -85.4636 38° Northeast 288 331 21,100  Level Indianapolis Center
08:41PM 40.2128 -85.4036 36° Northeast 284 327 21,100  Level Indianapolis Center
08:42PM 40.2772 -85.3414 36° Northeast 286 329 21,200  Climbing Indianapolis Center
08:43PM 40.3403 -85.2758 38° Northeast 289 333 21,100 -60 Descending Indianapolis Center
08:45PM 40.4306 -85.1919 35° Northeast 284 327 21,100  Level Chicago Center
08:46PM 40.4919 -85.1292 38° Northeast 282 325 21,100  Level Chicago Center
08:46PM 40.5406 -85.0756 40° Northeast 286 329 21,200  Climbing Indianapolis Center
08:47PM 40.6089 -85.0292 27° Northeast 280 322 21,100 -60 Descending Indianapolis Center
08:48PM 40.6797 -84.9861 25° Northeast 279 321 21,100  Level Indianapolis Center
08:49PM 40.7486 -84.9406 27° Northeast 279 321 21,100 -300 Level Indianapolis Center
08:50PM 40.8292 -84.8900 25° Northeast 275 316 20,600 -720 Descending Indianapolis Center
08:51PM 40.9039 -84.8389 27° Northeast 293 337 19,700 -840 Descending Indianapolis Center
08:52PM 40.9833 -84.7917 24° Northeast 306 352 19,000 -360 Descending Indianapolis Center
08:53PM 41.0597 -84.7506 22° Northeast 296 341 19,000  Level Indianapolis Center
08:55PM 41.1347 -84.7133 20° North 286 329 19,000  Level Indianapolis Center
08:56PM 41.2067 -84.6781 20° North 275 316 19,100  Climbing Indianapolis Center
08:57PM 41.2769 -84.6358 24° Northeast 274 315 19,000  Descending Indianapolis Center
08:58PM 41.3461 -84.5900 26° Northeast 277 319 19,100 -600 Climbing Indianapolis Center
08:59PM 41.4206 -84.5378 28° Northeast 278 320 17,800 -900 Descending Cleveland Center
09:00PM 41.4911 -84.4839 30° Northeast 283 326 17,300 -840 Descending Cleveland Center
09:01PM 41.5617 -84.4353 27° Northeast 283 326 16,200 -1,260 Descending Cleveland Center
09:02PM 41.6342 -84.3869 26° Northeast 283 326 14,800 -1,680 Descending Cleveland Center
09:03PM 41.7086 -84.3383 26° Northeast 288 331 12,900 -2,100 Descending Cleveland Center
09:04PM 41.7831 -84.2953 23° Northeast 288 331 10,600 -2,520 Descending Cleveland Center
09:05PM 41.8494 -84.2436 30° Northeast 282 325 7,900 -1,800 Descending Cleveland Center
09:06PM 41.9117 -84.1883 33° Northeast 272 313 7,100 -420 Descending Cleveland Center
09:07PM 41.9797 -84.1447 25° Northeast 267 307 7,100 -120 Level Cleveland Center
09:08PM 42.0514 -84.1208 14° North 261 300 6,900 -600 Descending Cleveland Center
09:09PM 42.1292 -84.0944 14° North 261 300 5,900 -1,200 Descending Cleveland Center
09:10PM 42.2031 -84.0647 17° North 261 300 4,500 -1,260 Descending Cleveland Center
09:11PM 42.2878 -84.0244 19° North 251 289 3,100 -660 Descending Cleveland Center
09:12PM 42.3600 -83.9833 23° Northeast 254 292 3,000 -60 Descending Cleveland Center
09:13PM 42.4278 -83.9422 24° Northeast 263 303 3,000  Level Cleveland Center
09:14PM 42.4897 -83.8947 29° Northeast 259 298 3,000  Level Cleveland Center
09:15PM 42.5556 -83.8503 26° Northeast 258 297 3,000  Level Cleveland Center
09:16PM 42.6114 -83.7939 37° Northeast 224 258 3,100  Climbing Cleveland Center
09:17PM 42.6461 -83.7419 48° Northeast 173 199 3,000  Descending Cleveland Center
09:18PM 42.6583 -83.6806 75° East 170 196 3,100  Climbing Cleveland Center
09:19PM 42.6600 -83.6100 88° East 177 204 3,100 -60 Level Cleveland Center
09:20PM 42.6594 -83.5564 91° East 157 181 3,000 -540 Descending Cleveland Center
09:21PM 42.6608 -83.5028 88° East 140 161 2,100 -840 Descending Cleveland Center
09:22PM 42.6622 -83.4492 88° East 120 138 1,400 -720 Descending Cleveland Center